sensor_id;sensor_type;location;lat;lon;timestamp;P1;durP1;ratioP1;P2;durP2;ratioP2
55756;SDS011;41676;44.610;44.078;2022-07-10T00:03:11;2.85;;;1.10;;
55756;SDS011;41676;44.610;44.078;2022-07-10T00:08:12;5.63;;;1.50;;
55756;SDS011;41676;44.610;44.078;2022-07-10T00:13:13;3.95;;;1.42;;
55756;SDS011;41676;44.610;44.078;2022-07-10T00:18:14;6.10;;;1.45;;
55756;SDS011;41676;44.610;44.078;2022-07-10T00:23:14;12.30;;;1.63;;
55756;SDS011;41676;44.610;44.078;2022-07-10T00:28:15;5.60;;;1.50;;
55756;SDS011;41676;44.610;44.078;2022-07-10T00:33:16;8.02;;;1.60;;
55756;SDS011;41676;44.610;44.078;2022-07-10T00:38:17;9.07;;;1.52;;
55756;SDS011;41676;44.610;44.078;2022-07-10T00:43:18;4.70;;;1.80;;
55756;SDS011;41676;44.610;44.078;2022-07-10T00:48:18;4.82;;;1.30;;
55756;SDS011;41676;44.610;44.078;2022-07-10T00:53:19;4.43;;;1.23;;
55756;SDS011;41676;44.610;44.078;2022-07-10T00:58:20;6.57;;;1.40;;
55756;SDS011;41676;44.610;44.078;2022-07-10T01:03:21;13.88;;;1.52;;
55756;SDS011;41676;44.610;44.078;2022-07-10T01:08:22;8.35;;;1.23;;
55756;SDS011;41676;44.610;44.078;2022-07-10T01:13:22;10.07;;;1.90;;
55756;SDS011;41676;44.610;44.078;2022-07-10T01:18:24;13.30;;;2.10;;
55756;SDS011;41676;44.610;44.078;2022-07-10T01:23:26;9.35;;;1.42;;
55756;SDS011;41676;44.610;44.078;2022-07-10T01:28:27;10.52;;;1.65;;
55756;SDS011;41676;44.610;44.078;2022-07-10T01:33:29;7.85;;;1.73;;
55756;SDS011;41676;44.610;44.078;2022-07-10T01:38:30;8.40;;;1.20;;
55756;SDS011;41676;44.610;44.078;2022-07-10T01:43:30;30.75;;;2.28;;
55756;SDS011;41676;44.610;44.078;2022-07-10T01:48:31;4.57;;;1.10;;
55756;SDS011;41676;44.610;44.078;2022-07-10T01:53:32;7.35;;;1.40;;
55756;SDS011;41676;44.610;44.078;2022-07-10T01:58:34;8.93;;;1.50;;
55756;SDS011;41676;44.610;44.078;2022-07-10T02:03:35;10.23;;;1.50;;
55756;SDS011;41676;44.610;44.078;2022-07-10T02:08:54;21.63;;;3.50;;
55756;SDS011;41676;44.610;44.078;2022-07-10T02:13:55;9.35;;;1.90;;
55756;SDS011;41676;44.610;44.078;2022-07-10T02:18:56;10.45;;;1.67;;
55756;SDS011;41676;44.610;44.078;2022-07-10T02:23:56;9.48;;;1.40;;
55756;SDS011;41676;44.610;44.078;2022-07-10T02:28:57;7.85;;;1.33;;
55756;SDS011;41676;44.610;44.078;2022-07-10T02:33:58;9.52;;;1.20;;
55756;SDS011;41676;44.610;44.078;2022-07-10T02:38:59;9.32;;;1.35;;
55756;SDS011;41676;44.610;44.078;2022-07-10T02:44:00;9.60;;;1.60;;
55756;SDS011;41676;44.610;44.078;2022-07-10T02:49:00;9.18;;;1.63;;
55756;SDS011;41676;44.610;44.078;2022-07-10T02:54:01;9.13;;;1.77;;
55756;SDS011;41676;44.610;44.078;2022-07-10T02:59:02;14.30;;;2.17;;
55756;SDS011;41676;44.610;44.078;2022-07-10T03:04:03;13.35;;;1.50;;
55756;SDS011;41676;44.610;44.078;2022-07-10T03:09:04;6.32;;;1.00;;
55756;SDS011;41676;44.610;44.078;2022-07-10T03:14:05;11.18;;;1.40;;
55756;SDS011;41676;44.610;44.078;2022-07-10T03:19:06;12.60;;;1.90;;
55756;SDS011;41676;44.610;44.078;2022-07-10T03:24:07;5.88;;;1.38;;
55756;SDS011;41676;44.610;44.078;2022-07-10T03:29:08;4.63;;;1.55;;
55756;SDS011;41676;44.610;44.078;2022-07-10T03:34:08;5.72;;;1.48;;
55756;SDS011;41676;44.610;44.078;2022-07-10T03:39:10;10.90;;;2.05;;
55756;SDS011;41676;44.610;44.078;2022-07-10T03:44:11;21.63;;;2.60;;
55756;SDS011;41676;44.610;44.078;2022-07-10T03:49:11;24.02;;;2.47;;
55756;SDS011;41676;44.610;44.078;2022-07-10T03:54:12;6.32;;;1.60;;
55756;SDS011;41676;44.610;44.078;2022-07-10T03:59:13;6.88;;;1.77;;
55756;SDS011;41676;44.610;44.078;2022-07-10T04:04:14;5.85;;;1.48;;
55756;SDS011;41676;44.610;44.078;2022-07-10T04:09:14;19.00;;;1.83;;
55756;SDS011;41676;44.610;44.078;2022-07-10T04:14:15;6.10;;;1.60;;
55756;SDS011;41676;44.610;44.078;2022-07-10T04:19:16;5.55;;;1.60;;
55756;SDS011;41676;44.610;44.078;2022-07-10T04:24:18;15.73;;;2.13;;
55756;SDS011;41676;44.610;44.078;2022-07-10T04:29:19;11.38;;;2.10;;
55756;SDS011;41676;44.610;44.078;2022-07-10T04:34:20;7.90;;;1.70;;
55756;SDS011;41676;44.610;44.078;2022-07-10T04:39:21;9.30;;;1.85;;
55756;SDS011;41676;44.610;44.078;2022-07-10T04:44:22;11.55;;;2.10;;
55756;SDS011;41676;44.610;44.078;2022-07-10T04:49:22;11.32;;;2.53;;
55756;SDS011;41676;44.610;44.078;2022-07-10T04:54:23;12.45;;;2.20;;
55756;SDS011;41676;44.610;44.078;2022-07-10T04:59:24;7.18;;;1.63;;
55756;SDS011;41676;44.610;44.078;2022-07-10T05:04:25;19.70;;;2.45;;
55756;SDS011;41676;44.610;44.078;2022-07-10T05:09:26;13.13;;;2.55;;
55756;SDS011;41676;44.610;44.078;2022-07-10T05:14:27;15.50;;;1.67;;
55756;SDS011;41676;44.610;44.078;2022-07-10T05:19:27;5.72;;;1.10;;
55756;SDS011;41676;44.610;44.078;2022-07-10T05:24:29;7.47;;;1.45;;
55756;SDS011;41676;44.610;44.078;2022-07-10T05:29:29;9.50;;;1.38;;
55756;SDS011;41676;44.610;44.078;2022-07-10T05:34:30;21.60;;;2.00;;
55756;SDS011;41676;44.610;44.078;2022-07-10T05:39:31;10.60;;;1.58;;
55756;SDS011;41676;44.610;44.078;2022-07-10T05:44:32;14.13;;;1.88;;
55756;SDS011;41676;44.610;44.078;2022-07-10T05:49:32;9.00;;;1.70;;
55756;SDS011;41676;44.610;44.078;2022-07-10T05:54:33;8.23;;;1.30;;
55756;SDS011;41676;44.610;44.078;2022-07-10T05:59:34;29.15;;;3.47;;
55756;SDS011;41676;44.610;44.078;2022-07-10T06:04:35;23.33;;;2.65;;
55756;SDS011;41676;44.610;44.078;2022-07-10T06:09:36;8.52;;;1.63;;
55756;SDS011;41676;44.610;44.078;2022-07-10T06:14:37;8.50;;;2.00;;
55756;SDS011;41676;44.610;44.078;2022-07-10T06:19:37;15.50;;;2.42;;
55756;SDS011;41676;44.610;44.078;2022-07-10T06:24:38;10.82;;;1.48;;
55756;SDS011;41676;44.610;44.078;2022-07-10T06:29:39;8.00;;;1.52;;
55756;SDS011;41676;44.610;44.078;2022-07-10T06:34:40;8.05;;;1.80;;
55756;SDS011;41676;44.610;44.078;2022-07-10T06:39:42;26.77;;;2.88;;
55756;SDS011;41676;44.610;44.078;2022-07-10T06:44:43;25.08;;;2.90;;
55756;SDS011;41676;44.610;44.078;2022-07-10T06:49:47;23.02;;;2.70;;
55756;SDS011;41676;44.610;44.078;2022-07-10T06:54:48;11.07;;;2.20;;
55756;SDS011;41676;44.610;44.078;2022-07-10T06:59:49;42.15;;;7.07;;
55756;SDS011;41676;44.610;44.078;2022-07-10T07:04:51;41.07;;;3.53;;
55756;SDS011;41676;44.610;44.078;2022-07-10T07:09:52;29.23;;;2.83;;
55756;SDS011;41676;44.610;44.078;2022-07-10T07:14:53;26.45;;;2.67;;
55756;SDS011;41676;44.610;44.078;2022-07-10T07:19:55;15.77;;;2.15;;
55756;SDS011;41676;44.610;44.078;2022-07-10T07:25:14;28.60;;;6.18;;
55756;SDS011;41676;44.610;44.078;2022-07-10T07:30:15;21.23;;;6.30;;
55756;SDS011;41676;44.610;44.078;2022-07-10T07:35:16;12.98;;;2.35;;
55756;SDS011;41676;44.610;44.078;2022-07-10T07:40:19;19.98;;;4.15;;
55756;SDS011;41676;44.610;44.078;2022-07-10T07:45:22;17.63;;;2.97;;
55756;SDS011;41676;44.610;44.078;2022-07-10T07:50:25;31.63;;;4.70;;
55756;SDS011;41676;44.610;44.078;2022-07-10T07:55:27;20.33;;;4.47;;
55756;SDS011;41676;44.610;44.078;2022-07-10T08:00:29;21.50;;;3.83;;
55756;SDS011;41676;44.610;44.078;2022-07-10T08:05:30;40.40;;;4.10;;
55756;SDS011;41676;44.610;44.078;2022-07-10T08:10:32;20.10;;;3.30;;
55756;SDS011;41676;44.610;44.078;2022-07-10T08:15:33;21.27;;;3.03;;
55756;SDS011;41676;44.610;44.078;2022-07-10T08:20:37;26.35;;;3.83;;
55756;SDS011;41676;44.610;44.078;2022-07-10T08:25:37;24.73;;;3.50;;
55756;SDS011;41676;44.610;44.078;2022-07-10T08:30:38;27.20;;;2.85;;
55756;SDS011;41676;44.610;44.078;2022-07-10T08:35:39;44.28;;;3.60;;
55756;SDS011;41676;44.610;44.078;2022-07-10T08:40:40;13.60;;;2.78;;
55756;SDS011;41676;44.610;44.078;2022-07-10T08:45:43;24.42;;;3.53;;
55756;SDS011;41676;44.610;44.078;2022-07-10T08:50:44;19.38;;;3.05;;
55756;SDS011;41676;44.610;44.078;2022-07-10T08:55:47;24.90;;;2.78;;
55756;SDS011;41676;44.610;44.078;2022-07-10T09:00:48;38.13;;;3.90;;
55756;SDS011;41676;44.610;44.078;2022-07-10T09:05:49;56.58;;;5.18;;
55756;SDS011;41676;44.610;44.078;2022-07-10T09:10:51;22.50;;;4.10;;
55756;SDS011;41676;44.610;44.078;2022-07-10T09:15:52;25.67;;;3.03;;
55756;SDS011;41676;44.610;44.078;2022-07-10T09:20:54;22.63;;;4.10;;
55756;SDS011;41676;44.610;44.078;2022-07-10T09:25:55;25.17;;;5.30;;
55756;SDS011;41676;44.610;44.078;2022-07-10T09:30:56;15.32;;;3.05;;
55756;SDS011;41676;44.610;44.078;2022-07-10T09:41:14;42.83;;;4.63;;
55756;SDS011;41676;44.610;44.078;2022-07-10T09:46:27;45.28;;;5.07;;
55756;SDS011;41676;44.610;44.078;2022-07-10T09:51:36;31.08;;;4.00;;
55756;SDS011;41676;44.610;44.078;2022-07-10T09:56:42;22.25;;;3.13;;
55756;SDS011;41676;44.610;44.078;2022-07-10T10:01:45;29.92;;;3.30;;
55756;SDS011;41676;44.610;44.078;2022-07-10T10:11:58;38.60;;;3.55;;
55756;SDS011;41676;44.610;44.078;2022-07-10T10:17:03;19.60;;;3.30;;
55756;SDS011;41676;44.610;44.078;2022-07-10T10:22:08;29.77;;;4.03;;
55756;SDS011;41676;44.610;44.078;2022-07-10T10:27:09;31.40;;;3.53;;
55756;SDS011;41676;44.610;44.078;2022-07-10T10:32:10;26.20;;;3.78;;
55756;SDS011;41676;44.610;44.078;2022-07-10T10:42:34;18.15;;;3.40;;
55756;SDS011;41676;44.610;44.078;2022-07-10T10:53:11;25.52;;;3.35;;
55756;SDS011;41676;44.610;44.078;2022-07-10T10:58:38;27.65;;;4.32;;
55756;SDS011;41676;44.610;44.078;2022-07-10T11:03:40;25.65;;;5.25;;
55756;SDS011;41676;44.610;44.078;2022-07-10T11:08:41;22.73;;;4.18;;
55756;SDS011;41676;44.610;44.078;2022-07-10T11:13:45;25.20;;;4.00;;
55756;SDS011;41676;44.610;44.078;2022-07-10T11:18:51;23.75;;;4.13;;
55756;SDS011;41676;44.610;44.078;2022-07-10T11:29:35;33.58;;;4.63;;
55756;SDS011;41676;44.610;44.078;2022-07-10T11:34:38;32.67;;;4.55;;
55756;SDS011;41676;44.610;44.078;2022-07-10T11:39:39;92.95;;;39.33;;
55756;SDS011;41676;44.610;44.078;2022-07-10T11:44:39;38.53;;;16.53;;
55756;SDS011;41676;44.610;44.078;2022-07-10T11:49:46;31.10;;;5.40;;
55756;SDS011;41676;44.610;44.078;2022-07-10T11:54:48;19.90;;;4.65;;
55756;SDS011;41676;44.610;44.078;2022-07-10T11:59:49;21.73;;;4.22;;
55756;SDS011;41676;44.610;44.078;2022-07-10T12:04:50;31.47;;;4.73;;
55756;SDS011;41676;44.610;44.078;2022-07-10T12:09:54;29.83;;;4.20;;
55756;SDS011;41676;44.610;44.078;2022-07-10T12:14:56;28.85;;;4.15;;
55756;SDS011;41676;44.610;44.078;2022-07-10T12:19:56;22.90;;;3.97;;
55756;SDS011;41676;44.610;44.078;2022-07-10T12:24:57;19.47;;;3.77;;
55756;SDS011;41676;44.610;44.078;2022-07-10T12:30:02;35.83;;;4.18;;
55756;SDS011;41676;44.610;44.078;2022-07-10T12:35:03;23.88;;;3.45;;
55756;SDS011;41676;44.610;44.078;2022-07-10T12:40:09;42.03;;;4.53;;
55756;SDS011;41676;44.610;44.078;2022-07-10T12:45:13;22.00;;;3.78;;
55756;SDS011;41676;44.610;44.078;2022-07-10T12:50:15;45.35;;;4.45;;
55756;SDS011;41676;44.610;44.078;2022-07-10T12:55:21;36.65;;;3.90;;
55756;SDS011;41676;44.610;44.078;2022-07-10T13:00:25;25.55;;;4.20;;
55756;SDS011;41676;44.610;44.078;2022-07-10T13:10:39;37.53;;;5.03;;
55756;SDS011;41676;44.610;44.078;2022-07-10T13:15:42;27.33;;;4.25;;
55756;SDS011;41676;44.610;44.078;2022-07-10T13:20:50;25.83;;;3.95;;
55756;SDS011;41676;44.610;44.078;2022-07-10T13:25:52;21.40;;;4.22;;
55756;SDS011;41676;44.610;44.078;2022-07-10T13:30:53;30.38;;;4.22;;
55756;SDS011;41676;44.610;44.078;2022-07-10T13:35:55;20.70;;;3.85;;
55756;SDS011;41676;44.610;44.078;2022-07-10T13:40:56;28.17;;;5.10;;
55756;SDS011;41676;44.610;44.078;2022-07-10T13:45:57;38.42;;;4.72;;
55756;SDS011;41676;44.610;44.078;2022-07-10T13:50:59;31.50;;;4.65;;
55756;SDS011;41676;44.610;44.078;2022-07-10T13:56:00;33.85;;;4.25;;
55756;SDS011;41676;44.610;44.078;2022-07-10T14:01:01;34.78;;;5.05;;
55756;SDS011;41676;44.610;44.078;2022-07-10T14:06:04;25.63;;;4.00;;
55756;SDS011;41676;44.610;44.078;2022-07-10T14:11:05;23.08;;;4.55;;
55756;SDS011;41676;44.610;44.078;2022-07-10T14:16:06;32.97;;;4.45;;
55756;SDS011;41676;44.610;44.078;2022-07-10T14:21:08;31.65;;;5.18;;
55756;SDS011;41676;44.610;44.078;2022-07-10T14:26:09;35.55;;;4.15;;
55756;SDS011;41676;44.610;44.078;2022-07-10T14:31:11;48.85;;;5.80;;
55756;SDS011;41676;44.610;44.078;2022-07-10T14:36:13;22.93;;;3.80;;
55756;SDS011;41676;44.610;44.078;2022-07-10T14:41:14;33.80;;;4.72;;
55756;SDS011;41676;44.610;44.078;2022-07-10T14:46:15;46.30;;;5.10;;
55756;SDS011;41676;44.610;44.078;2022-07-10T14:51:17;40.57;;;4.73;;
55756;SDS011;41676;44.610;44.078;2022-07-10T14:56:18;32.25;;;5.00;;
55756;SDS011;41676;44.610;44.078;2022-07-10T15:01:19;33.70;;;5.85;;
55756;SDS011;41676;44.610;44.078;2022-07-10T15:06:20;44.00;;;5.55;;
55756;SDS011;41676;44.610;44.078;2022-07-10T15:11:21;33.63;;;5.57;;
55756;SDS011;41676;44.610;44.078;2022-07-10T15:16:23;46.88;;;6.32;;
55756;SDS011;41676;44.610;44.078;2022-07-10T15:21:24;34.35;;;5.32;;
55756;SDS011;41676;44.610;44.078;2022-07-10T15:26:25;31.10;;;4.68;;
55756;SDS011;41676;44.610;44.078;2022-07-10T15:31:26;38.38;;;4.55;;
55756;SDS011;41676;44.610;44.078;2022-07-10T18:33:40;37.10;;;4.80;;
55756;SDS011;41676;44.610;44.078;2022-07-10T18:39:00;35.38;;;4.85;;
55756;SDS011;41676;44.610;44.078;2022-07-10T18:44:03;29.75;;;4.90;;
55756;SDS011;41676;44.610;44.078;2022-07-10T18:49:04;36.22;;;5.22;;
55756;SDS011;41676;44.610;44.078;2022-07-10T18:54:06;36.85;;;5.22;;
55756;SDS011;41676;44.610;44.078;2022-07-10T18:59:07;30.05;;;5.88;;
55756;SDS011;41676;44.610;44.078;2022-07-10T19:04:08;48.88;;;6.60;;
55756;SDS011;41676;44.610;44.078;2022-07-10T19:09:09;40.40;;;5.93;;
55756;SDS011;41676;44.610;44.078;2022-07-10T19:14:09;48.13;;;7.22;;
55756;SDS011;41676;44.610;44.078;2022-07-10T19:19:11;48.47;;;6.20;;
55756;SDS011;41676;44.610;44.078;2022-07-10T19:24:12;39.22;;;5.75;;
55756;SDS011;41676;44.610;44.078;2022-07-10T19:29:13;28.20;;;4.80;;
55756;SDS011;41676;44.610;44.078;2022-07-10T19:34:14;33.67;;;10.15;;
55756;SDS011;41676;44.610;44.078;2022-07-10T19:39:15;30.08;;;4.80;;
55756;SDS011;41676;44.610;44.078;2022-07-10T19:44:18;28.97;;;4.03;;
55756;SDS011;41676;44.610;44.078;2022-07-10T19:49:19;44.22;;;5.35;;
55756;SDS011;41676;44.610;44.078;2022-07-10T19:54:20;36.17;;;4.85;;
55756;SDS011;41676;44.610;44.078;2022-07-10T19:59:21;33.08;;;4.82;;
55756;SDS011;41676;44.610;44.078;2022-07-10T20:04:22;19.92;;;3.78;;
55756;SDS011;41676;44.610;44.078;2022-07-10T20:09:23;25.90;;;4.00;;
55756;SDS011;41676;44.610;44.078;2022-07-10T20:14:23;27.90;;;3.97;;
55756;SDS011;41676;44.610;44.078;2022-07-10T20:19:27;18.83;;;3.35;;
55756;SDS011;41676;44.610;44.078;2022-07-10T20:24:30;16.85;;;3.65;;
55756;SDS011;41676;44.610;44.078;2022-07-10T20:29:31;20.45;;;3.67;;
55756;SDS011;41676;44.610;44.078;2022-07-10T20:34:32;20.90;;;2.80;;
55756;SDS011;41676;44.610;44.078;2022-07-10T20:39:33;26.38;;;3.20;;
55756;SDS011;41676;44.610;44.078;2022-07-10T20:44:34;16.67;;;2.50;;
55756;SDS011;41676;44.610;44.078;2022-07-10T20:49:34;15.48;;;2.92;;
55756;SDS011;41676;44.610;44.078;2022-07-10T20:54:35;13.77;;;2.78;;
55756;SDS011;41676;44.610;44.078;2022-07-10T20:59:36;39.90;;;3.08;;
55756;SDS011;41676;44.610;44.078;2022-07-10T21:04:37;24.23;;;3.30;;
55756;SDS011;41676;44.610;44.078;2022-07-10T21:09:38;17.08;;;2.70;;
55756;SDS011;41676;44.610;44.078;2022-07-10T21:14:38;19.55;;;3.53;;
55756;SDS011;41676;44.610;44.078;2022-07-10T21:19:40;16.25;;;2.60;;
55756;SDS011;41676;44.610;44.078;2022-07-10T21:24:41;11.15;;;2.05;;
55756;SDS011;41676;44.610;44.078;2022-07-10T21:29:42;14.93;;;2.55;;
55756;SDS011;41676;44.610;44.078;2022-07-10T21:34:43;18.17;;;2.95;;
55756;SDS011;41676;44.610;44.078;2022-07-10T21:39:43;14.57;;;3.05;;
55756;SDS011;41676;44.610;44.078;2022-07-10T21:44:44;15.43;;;3.08;;
55756;SDS011;41676;44.610;44.078;2022-07-10T21:49:45;14.70;;;2.75;;
55756;SDS011;41676;44.610;44.078;2022-07-10T21:54:46;22.05;;;3.35;;
55756;SDS011;41676;44.610;44.078;2022-07-10T21:59:50;21.85;;;3.03;;
55756;SDS011;41676;44.610;44.078;2022-07-10T22:04:51;17.55;;;2.97;;
55756;SDS011;41676;44.610;44.078;2022-07-10T22:09:53;19.43;;;3.67;;
55756;SDS011;41676;44.610;44.078;2022-07-10T22:14:54;24.85;;;3.72;;
55756;SDS011;41676;44.610;44.078;2022-07-10T22:19:56;22.20;;;3.30;;
55756;SDS011;41676;44.610;44.078;2022-07-10T22:24:57;27.63;;;3.13;;
55756;SDS011;41676;44.610;44.078;2022-07-10T22:29:58;24.17;;;3.25;;
55756;SDS011;41676;44.610;44.078;2022-07-10T22:34:59;18.75;;;2.97;;
55756;SDS011;41676;44.610;44.078;2022-07-10T22:40:00;17.40;;;2.78;;
55756;SDS011;41676;44.610;44.078;2022-07-10T22:45:01;24.75;;;3.10;;
55756;SDS011;41676;44.610;44.078;2022-07-10T22:50:01;14.18;;;2.47;;
55756;SDS011;41676;44.610;44.078;2022-07-10T22:55:02;17.40;;;2.90;;
55756;SDS011;41676;44.610;44.078;2022-07-10T23:00:03;16.80;;;2.67;;
55756;SDS011;41676;44.610;44.078;2022-07-10T23:05:05;19.20;;;3.10;;
55756;SDS011;41676;44.610;44.078;2022-07-10T23:10:06;15.73;;;2.88;;
55756;SDS011;41676;44.610;44.078;2022-07-10T23:15:07;15.95;;;3.22;;
55756;SDS011;41676;44.610;44.078;2022-07-10T23:20:08;13.65;;;2.75;;
55756;SDS011;41676;44.610;44.078;2022-07-10T23:25:10;23.33;;;3.15;;
55756;SDS011;41676;44.610;44.078;2022-07-10T23:30:10;14.80;;;3.17;;
55756;SDS011;41676;44.610;44.078;2022-07-10T23:35:11;17.90;;;3.03;;
55756;SDS011;41676;44.610;44.078;2022-07-10T23:40:12;15.50;;;2.60;;
55756;SDS011;41676;44.610;44.078;2022-07-10T23:45:13;19.08;;;2.97;;
55756;SDS011;41676;44.610;44.078;2022-07-10T23:50:14;13.80;;;2.70;;
55756;SDS011;41676;44.610;44.078;2022-07-10T23:55:15;14.57;;;2.55;;
